createdAt,value
2023-05-17T00:00:46.550Z,9.5621
2023-05-17T00:01:47.754Z,9.0513
2023-05-17T00:02:49.214Z,9.4407
2023-05-17T00:03:50.365Z,8.9543
2023-05-17T00:04:51.817Z,9.0308
2023-05-17T00:05:53.143Z,9.4274
2023-05-17T00:06:54.367Z,9.4677
2023-05-17T00:07:55.637Z,9.1857
2023-05-17T00:08:56.853Z,9.6061
2023-05-17T00:09:58.095Z,9.4068
2023-05-17T00:11:00.007Z,9.5700
2023-05-17T00:12:01.398Z,9.7739
2023-05-17T00:13:02.739Z,9.4575
2023-05-17T00:14:04.706Z,9.3947
2023-05-17T00:15:05.868Z,9.0897
2023-05-17T00:16:08.343Z,9.1421
2023-05-17T00:17:09.582Z,9.1180
2023-05-17T05:06:24.200Z,9.4118
2023-05-17T05:06:24.200Z,9.9928
2023-05-17T05:06:24.200Z,9.5379
2023-05-17T05:07:06.084Z,8.4600
2023-05-17T05:08:07.287Z,8.6249
2023-05-17T05:09:08.536Z,8.7236
2023-05-17T05:10:09.805Z,8.7298
2023-05-17T05:11:11.423Z,8.7689
2023-05-17T05:12:12.878Z,8.5220
2023-05-17T05:13:15.017Z,8.5508
2023-05-17T05:14:14.683Z,8.5078
2023-05-17T05:15:17.399Z,8.6475
2023-05-17T05:16:18.759Z,8.5475
2023-05-17T05:17:19.963Z,8.7761
2023-05-17T05:18:21.344Z,8.8266
2023-05-17T05:19:22.861Z,8.8620
2023-05-17T05:56:59.573Z,9.0661
2023-05-17T06:24:55.488Z,9.5014
2023-05-17T06:24:55.488Z,9.5148
2023-05-17T06:40:22.955Z,9.2919
2023-05-17T06:40:22.955Z,9.2344
2023-05-17T06:40:22.955Z,9.2905
2023-05-17T06:40:41.724Z,9.5975
2023-05-17T06:41:42.955Z,9.3545
2023-05-17T06:42:44.178Z,9.1270
2023-05-17T06:43:46.462Z,9.1697
2023-05-17T06:51:50.275Z,9.7124
2023-05-17T06:52:52.733Z,9.2477
2023-05-17T06:53:54.066Z,9.4026
2023-05-17T06:54:55.357Z,9.5016
2023-05-17T06:55:56.683Z,9.2381
2023-05-17T06:56:57.891Z,9.2452
2023-05-17T06:57:59.232Z,8.9921
2023-05-17T06:59:00.415Z,9.3700
2023-05-17T07:00:01.726Z,9.6056
2023-05-17T07:01:02.960Z,9.4226
2023-05-17T07:02:04.526Z,9.7934
2023-05-17T07:03:05.785Z,9.7708
2023-05-17T07:04:07.133Z,10.0686
2023-05-17T07:05:09.514Z,9.9209
2023-05-17T07:06:10.708Z,9.7867
2023-05-17T07:07:11.877Z,9.3620
2023-05-17T07:08:13.982Z,9.8698
2023-05-17T07:09:15.162Z,9.8259
2023-05-17T07:10:16.396Z,9.7425
2023-05-17T07:11:17.625Z,9.9634
2023-05-17T07:12:20.009Z,9.8348
2023-05-17T07:13:21.280Z,9.7745
2023-05-17T07:14:22.428Z,9.9976
2023-05-17T07:15:23.914Z,9.8496
2023-05-17T07:16:26.198Z,9.4106
2023-05-17T07:17:27.575Z,9.3513
2023-05-17T07:18:29.013Z,9.3338
2023-05-17T07:19:30.307Z,9.8009
2023-05-17T07:20:31.611Z,9.4823
2023-05-17T07:21:32.846Z,9.4619
2023-05-17T07:22:34.179Z,9.5840
2023-05-17T07:23:35.542Z,9.4203
2023-05-17T07:24:36.713Z,9.3474
2023-05-17T07:25:37.963Z,9.4228
2023-05-17T07:26:39.305Z,9.5842
2023-05-17T07:27:41.454Z,9.5947
2023-05-17T07:28:42.642Z,9.2976
2023-05-17T07:29:43.984Z,9.8132
2023-05-17T07:30:45.227Z,9.7750
2023-05-17T07:31:46.447Z,9.5740
2023-05-17T07:32:47.814Z,9.6205
2023-05-17T07:33:49.286Z,9.4935
2023-05-17T07:34:50.535Z,9.6895
2023-05-17T07:35:51.916Z,10.0160
2023-05-17T07:36:53.348Z,9.9738
2023-05-17T07:37:54.987Z,9.5619
2023-05-17T07:38:56.306Z,9.8063
2023-05-17T07:40:40.290Z,10.1049
2023-05-17T07:41:41.636Z,9.9527
2023-05-17T07:42:42.807Z,9.9107
2023-05-17T07:43:44.022Z,10.0465
2023-05-17T07:44:45.202Z,10.2194
2023-05-17T07:45:47.836Z,10.2116
2023-05-17T07:46:49.249Z,10.1297
2023-05-17T07:47:51.500Z,10.0908
2023-05-17T07:48:53.629Z,10.0508
2023-05-17T07:49:52.919Z,9.7916
2023-05-17T07:50:54.327Z,9.8977
2023-05-17T07:51:55.534Z,10.3494
2023-05-17T07:52:56.767Z,10.3946
2023-05-17T07:53:57.933Z,9.9975
2023-05-17T07:56:44.389Z,9.9478
2023-05-17T07:57:47.033Z,10.0648
2023-05-17T07:58:49.487Z,9.7635
2023-05-17T07:59:50.755Z,9.7498
2023-05-17T08:00:51.972Z,9.7222
2023-05-17T08:01:53.124Z,9.6386
2023-05-17T08:02:54.649Z,9.7524
2023-05-17T08:03:56.459Z,9.7815
2023-05-17T08:04:57.673Z,10.0055
2023-05-17T08:05:58.959Z,10.1629
2023-05-17T08:07:01.931Z,10.1102
2023-05-17T08:08:00.130Z,9.8770
2023-05-17T08:09:01.276Z,10.0045
2023-05-17T08:10:02.608Z,10.0334
2023-05-17T08:11:03.820Z,9.7914
2023-05-17T08:12:05.042Z,9.9579
2023-05-17T08:13:06.305Z,9.8443
2023-05-17T08:14:07.560Z,10.1162
2023-05-17T08:15:08.732Z,9.7897
2023-05-17T08:16:14.002Z,9.9116
2023-05-17T08:17:10.293Z,9.9573
2023-05-17T08:18:11.701Z,9.8881
2023-05-17T08:19:14.150Z,9.9895
2023-05-17T08:20:15.845Z,9.9322
2023-05-17T08:21:17.446Z,10.1233
2023-05-17T08:22:18.681Z,9.9732
2023-05-17T08:23:20.058Z,10.1926
2023-05-17T08:29:38.858Z,10.1343
2023-05-17T08:31:29.943Z,10.4040
2023-05-17T08:32:31.599Z,9.9100
2023-05-17T08:33:32.915Z,10.3831
2023-05-17T08:34:35.161Z,10.3065
2023-05-17T08:35:36.478Z,10.6630
2023-05-17T08:36:37.701Z,10.4216
2023-05-17T08:37:38.904Z,10.4457
2023-05-17T08:38:40.114Z,10.6047
2023-05-17T08:47:33.788Z,10.7584
2023-05-17T08:47:33.788Z,10.7578
2023-05-17T08:47:33.788Z,10.5575
2023-05-17T08:48:34.987Z,10.7538
2023-05-17T08:49:36.102Z,10.6775
2023-05-17T08:50:37.290Z,10.9259
2023-05-17T08:51:38.581Z,10.7229
2023-05-17T08:52:42.722Z,11.0441
2023-05-17T08:53:41.733Z,10.9818
2023-05-17T08:54:42.916Z,10.9944
2023-05-17T08:55:44.173Z,10.8870
2023-05-17T08:56:45.494Z,11.0128
2023-05-17T08:57:46.621Z,10.7741
2023-05-17T08:58:56.660Z,11.2414
2023-05-17T08:59:48.575Z,11.2365
2023-05-17T09:00:49.740Z,11.2543
2023-05-17T09:01:50.951Z,11.3749
2023-05-17T09:02:52.302Z,11.3763
2023-05-17T09:03:54.670Z,11.4561
2023-05-17T09:04:56.327Z,11.7119
2023-05-17T09:05:57.699Z,11.4601
2023-05-17T09:06:59.400Z,11.2785
2023-05-17T09:07:58.726Z,11.3681
2023-05-17T09:09:01.151Z,11.1966
2023-05-17T09:10:03.407Z,11.2147
2023-05-17T09:11:04.696Z,10.9711
2023-05-17T09:12:05.952Z,11.1701
2023-05-17T09:13:07.291Z,10.7916
2023-05-17T09:14:08.750Z,10.9143
2023-05-17T09:15:10.114Z,10.8809
2023-05-17T09:16:12.476Z,10.8136
2023-05-17T09:17:13.778Z,10.9116
2023-05-17T09:18:17.752Z,10.9821
2023-05-17T09:19:17.985Z,10.9398
2023-05-17T09:20:19.914Z,11.0904
2023-05-17T09:21:22.436Z,10.9980
2023-05-17T09:22:24.824Z,11.1868
2023-05-17T09:23:26.965Z,11.2607
2023-05-17T09:24:28.198Z,11.1493
2023-05-17T09:25:30.667Z,10.9366
2023-05-17T09:26:31.930Z,10.8970
2023-05-17T09:27:33.224Z,11.0830
2023-05-17T09:28:34.660Z,11.0060
2023-05-17T09:29:36.925Z,10.5623
2023-05-17T09:30:38.248Z,10.7979
2023-05-17T09:31:40.564Z,11.0797
2023-05-17T09:32:41.826Z,11.1837
2023-05-17T09:33:43.009Z,10.9130
2023-05-17T09:34:44.411Z,10.9550
2023-05-17T09:35:45.694Z,11.2116
2023-05-17T09:36:47.014Z,11.1769
2023-05-17T09:37:48.332Z,11.1227
2023-05-17T09:38:49.571Z,11.0032
2023-05-17T09:39:50.868Z,11.4387
2023-05-17T09:40:52.150Z,11.0076
2023-05-17T09:41:53.500Z,11.2695
2023-05-17T09:42:54.700Z,11.4042
2023-05-17T09:43:56.015Z,11.4270
2023-05-17T09:44:57.293Z,11.3318
2023-05-17T09:48:14.812Z,11.1456
2023-05-17T09:51:46.912Z,10.6416
2023-05-17T09:51:46.912Z,11.0502
2023-05-17T09:51:46.912Z,11.3600
2023-05-17T09:53:51.962Z,11.5439
2023-05-17T09:54:53.165Z,11.3989
2023-05-17T09:55:54.450Z,11.3968
2023-05-17T09:56:55.768Z,11.4740
2023-05-17T09:57:57.122Z,11.6734
2023-05-17T09:58:58.314Z,11.3792
2023-05-17T09:59:59.558Z,11.7246
2023-05-17T10:02:03.615Z,11.5246
2023-05-17T10:03:05.449Z,10.8724
2023-05-17T10:04:07.095Z,11.3333
2023-05-17T10:05:09.074Z,11.5423
2023-05-17T10:06:13.342Z,11.6731
2023-05-17T10:07:12.186Z,11.1622
2023-05-17T10:08:13.763Z,11.0494
2023-05-17T10:09:16.356Z,11.2043
2023-05-17T10:10:19.779Z,11.5353
2023-05-17T10:11:18.860Z,11.5039
2023-05-17T10:12:20.149Z,11.1858
2023-05-17T10:13:22.077Z,11.1867
2023-05-17T10:14:23.150Z,11.4490
2023-05-17T10:21:20.197Z,11.6168
2023-05-17T10:21:20.197Z,11.5019
2023-05-17T10:21:20.197Z,11.4427
2023-05-17T10:22:23.249Z,11.3600
2023-05-17T10:23:16.410Z,11.3586
2023-05-17T10:24:17.787Z,11.2772
2023-05-17T10:25:18.968Z,11.5457
2023-05-17T10:26:20.305Z,11.6945
2023-05-17T10:27:21.670Z,11.7610
2023-05-17T10:28:22.905Z,11.6206
2023-05-17T10:29:26.669Z,11.3307
2023-05-17T10:30:25.202Z,11.3273
2023-05-17T10:31:26.964Z,11.3204
2023-05-17T10:32:29.069Z,11.5825
2023-05-17T10:48:52.098Z,11.6031
2023-05-17T10:48:52.098Z,12.0222
2023-05-17T10:48:52.098Z,11.5309
2023-05-17T10:49:15.546Z,12.1077
2023-05-17T10:50:17.976Z,11.3880
2023-05-17T10:51:20.255Z,11.7200
2023-05-17T10:52:21.477Z,11.9160
2023-05-17T10:53:22.739Z,12.0703
2023-05-17T10:54:23.965Z,11.7660
2023-05-17T10:55:25.220Z,11.6794
2023-05-17T10:56:26.440Z,11.4089
2023-05-17T10:57:31.081Z,11.6719
2023-05-17T10:58:28.462Z,11.9301
2023-05-17T10:59:29.683Z,11.8416
2023-05-17T11:00:31.215Z,11.6847
2023-05-17T11:01:33.440Z,11.9592
2023-05-17T11:02:34.698Z,11.6178
2023-05-17T11:03:35.909Z,11.4373
2023-05-17T11:04:37.187Z,11.7095
2023-05-17T11:05:38.555Z,11.8095
2023-05-17T11:06:40.843Z,11.8767
2023-05-17T11:07:42.086Z,12.0811
2023-05-17T11:08:43.285Z,12.1017
2023-05-17T11:09:44.488Z,11.3896
2023-05-17T11:10:45.744Z,11.4668
2023-05-17T11:11:46.924Z,11.5849
2023-05-17T11:12:48.437Z,11.1999
2023-05-17T11:13:49.696Z,11.7254
2023-05-17T11:14:50.892Z,11.8865
2023-05-17T11:15:52.135Z,11.5202
2023-05-17T11:16:54.113Z,11.9480
2023-05-17T11:17:54.086Z,12.0390
2023-05-17T11:18:55.607Z,12.1722
2023-05-17T11:19:56.996Z,12.3208
2023-05-17T11:20:58.369Z,12.2378
2023-05-17T11:21:59.516Z,12.0609
2023-05-17T11:23:00.840Z,12.1029
2023-05-17T11:24:02.104Z,12.3329
2023-05-17T11:25:03.394Z,12.3145
2023-05-17T11:26:15.274Z,12.0876
2023-05-17T11:27:05.193Z,12.2237
2023-05-17T11:28:06.473Z,12.2617
2023-05-17T11:29:07.706Z,12.2391
2023-05-17T11:30:09.010Z,12.2762
2023-05-17T11:31:10.796Z,12.2234
2023-05-17T11:32:14.451Z,12.4373
2023-05-17T11:42:19.828Z,12.5563
2023-05-17T11:42:19.828Z,12.6551
2023-05-17T11:42:19.828Z,12.6815
2023-05-17T11:43:45.268Z,12.9114
2023-05-17T11:44:23.676Z,12.7970
2023-05-17T11:45:24.945Z,12.7670
2023-05-17T11:46:26.175Z,12.8635
2023-05-17T11:47:27.562Z,12.8102
2023-05-17T11:48:30.121Z,12.6395
2023-05-17T11:49:35.697Z,12.3885
2023-05-17T11:50:32.349Z,12.5687
2023-05-17T11:51:33.602Z,12.2345
2023-05-17T11:52:34.902Z,12.5533
2023-05-17T11:53:36.132Z,12.4595
2023-05-17T11:54:37.356Z,12.6852
2023-05-17T11:55:38.590Z,12.9110
2023-05-17T11:56:43.460Z,12.4021
2023-05-17T11:57:42.861Z,12.4757
2023-05-17T11:58:44.261Z,12.4648
2023-05-17T11:59:45.694Z,12.6603
2023-05-17T12:00:47.107Z,12.7186
2023-05-17T12:01:48.369Z,12.7281
2023-05-17T12:02:49.625Z,12.3848
2023-05-17T12:03:50.881Z,12.6037
2023-05-17T12:04:52.093Z,12.5216
2023-05-17T12:05:53.355Z,12.9368
2023-05-17T12:06:54.598Z,12.7327
2023-05-17T12:07:55.766Z,12.4245
2023-05-17T12:08:56.939Z,12.5214
2023-05-17T12:09:58.213Z,12.4265
2023-05-17T12:10:59.417Z,12.7028
2023-05-17T12:12:00.813Z,12.9233
2023-05-17T12:13:01.988Z,12.6979
2023-05-17T12:14:03.214Z,12.8184
2023-05-17T12:15:04.575Z,12.9859
2023-05-17T12:16:05.776Z,13.1289
2023-05-17T12:17:07.111Z,13.1339
2023-05-17T12:18:08.472Z,12.7310
2023-05-17T12:19:09.789Z,12.7094
2023-05-17T12:20:11.183Z,12.7416
2023-05-17T12:21:12.419Z,12.5294
2023-05-17T12:22:13.646Z,12.4787
2023-05-17T12:23:14.833Z,12.2152
2023-05-17T12:24:16.162Z,12.3401
2023-05-17T12:25:18.741Z,12.3576
2023-05-17T12:26:20.452Z,12.3148
2023-05-17T12:27:21.782Z,12.5643
2023-05-17T12:28:23.515Z,12.3774
2023-05-17T12:29:24.731Z,12.7457
2023-05-17T12:30:25.947Z,12.7310
2023-05-17T12:31:27.636Z,12.9761
2023-05-17T12:32:28.950Z,12.7591
2023-05-17T12:33:30.572Z,12.7902
2023-05-17T12:34:32.828Z,12.8887
2023-05-17T12:35:34.049Z,12.8915
2023-05-17T12:36:35.335Z,12.9448
2023-05-17T12:37:36.592Z,13.1900
2023-05-17T12:38:37.803Z,13.1264
2023-05-17T12:39:39.097Z,13.2879
2023-05-17T12:40:41.970Z,13.0952
2023-05-17T12:41:41.191Z,13.4596
2023-05-17T12:42:42.332Z,13.3501
2023-05-17T12:43:43.600Z,12.9085
2023-05-17T12:44:44.860Z,12.8418
2023-05-17T12:45:47.219Z,12.8601
2023-05-17T12:46:48.575Z,13.1473
2023-05-17T12:47:51.565Z,13.2553
2023-05-17T12:48:53.885Z,13.3952
2023-05-17T12:49:55.402Z,13.7035
2023-05-17T12:50:57.233Z,13.5956
2023-05-17T12:51:58.572Z,13.8606
2023-05-17T12:52:59.791Z,13.6220
2023-05-17T12:54:01.114Z,13.8339
2023-05-17T12:55:02.659Z,13.2351
2023-05-17T12:56:04.026Z,13.2457
2023-05-17T12:57:06.247Z,13.4364
2023-05-17T12:58:11.213Z,13.4559
2023-05-17T13:00:54.637Z,13.1466
2023-05-17T13:01:56.862Z,13.4455
2023-05-17T13:02:58.162Z,13.1543
2023-05-17T13:04:00.552Z,13.4740
2023-05-17T13:05:02.956Z,13.3003
2023-05-17T13:06:05.197Z,13.5117
2023-05-17T13:07:06.498Z,13.1624
2023-05-17T13:08:07.682Z,13.2063
2023-05-17T13:09:08.893Z,13.4185
2023-05-17T13:10:10.200Z,13.1440
2023-05-17T13:11:11.391Z,13.0347
2023-05-17T13:12:12.583Z,13.4016
2023-05-17T13:13:13.818Z,13.7090
2023-05-17T13:14:15.148Z,14.0057
2023-05-17T13:15:16.796Z,14.1800
2023-05-17T13:16:19.008Z,13.9172
2023-05-17T13:17:20.699Z,13.8578
2023-05-17T13:18:23.033Z,13.9653
2023-05-17T13:19:24.421Z,13.9739
2023-05-17T13:20:26.915Z,14.1119
2023-05-17T13:21:29.238Z,14.0772
2023-05-17T13:22:31.802Z,14.2048
2023-05-17T13:25:49.543Z,13.7544
2023-05-17T13:26:41.612Z,13.8113
2023-05-17T13:27:42.808Z,14.0278
2023-05-17T13:28:44.570Z,13.9994
2023-05-17T13:29:45.814Z,14.0472
2023-05-17T13:30:47.316Z,13.3430
2023-05-17T13:31:51.801Z,13.4976
2023-05-17T13:32:53.038Z,13.6072
2023-05-17T13:33:55.655Z,13.3409
2023-05-17T13:34:56.997Z,13.1204
2023-05-17T13:35:58.209Z,13.5197
2023-05-17T13:36:59.625Z,13.4333
2023-05-17T13:38:00.858Z,13.2105
2023-05-17T13:39:02.066Z,13.5547
2023-05-17T13:40:03.366Z,13.4578
2023-05-17T13:41:04.530Z,13.4179
2023-05-17T13:42:05.977Z,13.4953
2023-05-17T13:43:09.103Z,13.7621
2023-05-17T13:44:08.669Z,13.7509
2023-05-17T13:45:10.883Z,13.7241
2023-05-17T13:46:12.150Z,13.5464
2023-05-17T13:47:13.398Z,13.7630
2023-05-17T13:48:16.851Z,13.9276
2023-05-17T13:49:15.940Z,13.9637
2023-05-17T13:50:18.091Z,14.1189
2023-05-17T13:51:19.288Z,14.1245
2023-05-17T13:52:20.551Z,14.2423
2023-05-17T13:53:21.776Z,14.2663
2023-05-17T13:54:23.206Z,14.1592
2023-05-17T13:55:24.586Z,13.9576
2023-05-17T13:56:25.873Z,13.7931
2023-05-17T13:57:27.233Z,14.4191
2023-05-17T13:59:57.385Z,13.8447
2023-05-17T13:59:57.385Z,14.0254
2023-05-17T14:00:32.379Z,14.0016
2023-05-17T14:01:33.570Z,13.9678
2023-05-17T14:02:34.939Z,13.9116
2023-05-17T14:03:36.244Z,13.7152
2023-05-17T14:04:37.477Z,13.8192
2023-05-17T14:05:38.739Z,13.5367
2023-05-17T14:06:39.977Z,13.4574
2023-05-17T14:07:41.252Z,13.4894
2023-05-17T14:08:42.450Z,13.7567
2023-05-17T14:09:43.731Z,13.7769
2023-05-17T14:10:45.007Z,13.7935
2023-05-17T14:11:46.257Z,13.8934
2023-05-17T14:12:47.566Z,14.1656
2023-05-17T14:13:48.790Z,14.0442
2023-05-17T14:14:50.909Z,14.1019
2023-05-17T14:15:52.164Z,13.5053
2023-05-17T14:16:53.557Z,13.8322
2023-05-17T14:17:54.890Z,14.0107
2023-05-17T14:18:57.209Z,13.9073
2023-05-17T14:19:58.400Z,13.8641
2023-05-17T14:20:59.622Z,13.6653
2023-05-17T14:22:00.833Z,13.9388
2023-05-17T14:23:02.080Z,13.9920
2023-05-17T14:24:03.255Z,13.7340
2023-05-17T14:25:04.492Z,13.5892
2023-05-17T14:26:05.807Z,13.5382
2023-05-17T14:27:07.060Z,13.8720
2023-05-17T14:28:08.268Z,13.5424
2023-05-17T14:29:09.552Z,13.5440
2023-05-17T14:30:13.406Z,13.5106
2023-05-17T14:31:11.609Z,13.3132
2023-05-17T14:32:12.771Z,13.4676
2023-05-17T14:33:14.119Z,13.3974
2023-05-17T14:34:15.346Z,13.5360
2023-05-17T14:36:20.719Z,13.4953
2023-05-17T14:36:20.719Z,13.7190
2023-05-17T14:37:21.912Z,13.7953
2023-05-17T14:38:23.346Z,13.6271
2023-05-17T14:39:24.490Z,13.7763
2023-05-17T14:40:25.728Z,14.0012
2023-05-17T14:41:27.005Z,13.8582
2023-05-17T14:42:28.248Z,13.8232
2023-05-17T14:43:29.519Z,13.6661
2023-05-17T14:44:30.676Z,13.6265
2023-05-17T14:45:31.958Z,13.5799
2023-05-17T14:46:33.221Z,13.7590
2023-05-17T14:47:36.540Z,13.6631
2023-05-17T14:48:34.970Z,13.4992
2023-05-17T14:49:36.166Z,13.5280
2023-05-17T14:50:37.422Z,13.7063
2023-05-17T14:51:38.636Z,13.6937
2023-05-17T14:52:39.945Z,13.6229
2023-05-17T14:53:41.222Z,13.2986
2023-05-17T14:54:42.414Z,13.4065
2023-05-17T14:55:43.780Z,13.6999
2023-05-17T14:56:45.026Z,13.8776
2023-05-17T14:57:46.349Z,13.4400
2023-05-17T14:58:47.705Z,13.6434
2023-05-17T14:59:48.884Z,13.5050
2023-05-17T15:00:52.349Z,13.6907
2023-05-17T15:01:52.108Z,13.7306
2023-05-17T15:02:53.459Z,14.0311
2023-05-17T15:03:54.787Z,14.0650
2023-05-17T15:04:56.236Z,13.9721
2023-05-17T15:05:58.598Z,14.0353
2023-05-17T15:06:59.923Z,14.3607
2023-05-17T15:08:02.287Z,14.1815
2023-05-17T15:09:03.511Z,14.3751
2023-05-17T15:10:04.848Z,14.5762
2023-05-17T15:11:06.040Z,14.4764
2023-05-17T15:12:07.348Z,14.6884
2023-05-17T15:13:08.695Z,14.6829
2023-05-17T15:14:10.946Z,14.3958
2023-05-17T15:15:12.156Z,14.4013
2023-05-17T15:16:13.567Z,14.4512
2023-05-17T15:17:14.740Z,14.6250
2023-05-17T15:18:16.112Z,14.4199
2023-05-17T15:19:17.392Z,14.8069
2023-05-17T15:20:19.752Z,14.5780
2023-05-17T15:21:21.107Z,14.5449
2023-05-17T15:22:22.316Z,14.6118
2023-05-17T15:23:23.611Z,14.7201
2023-05-17T15:24:24.869Z,14.9961
2023-05-17T15:25:26.210Z,14.7320
2023-05-17T15:26:29.239Z,14.9882
2023-05-17T15:27:30.927Z,14.4038
2023-05-17T15:28:32.189Z,14.2276
2023-05-17T15:29:34.421Z,14.6767
2023-05-17T15:30:36.092Z,14.5150
2023-05-17T15:31:38.510Z,14.4006
2023-05-17T15:32:40.948Z,14.4860
2023-05-17T15:33:43.178Z,14.1910
2023-05-17T15:34:44.757Z,14.4696
2023-05-17T15:35:46.127Z,14.1399
2023-05-17T15:36:47.535Z,14.4175
2023-05-17T15:37:48.908Z,14.4538
2023-05-17T15:38:50.435Z,14.1727
2023-05-17T15:39:51.577Z,14.3576
2023-05-17T15:40:52.866Z,14.3940
2023-05-17T15:41:54.199Z,14.5012
2023-05-17T15:42:55.427Z,14.5494
2023-05-17T15:43:56.856Z,14.5905
2023-05-17T15:44:58.271Z,14.7869
2023-05-17T15:45:59.610Z,14.7896
2023-05-17T15:47:03.065Z,14.4558
2023-05-17T15:48:01.585Z,14.8106
2023-05-17T15:49:02.875Z,14.5015
2023-05-17T15:50:04.141Z,14.5028
2023-05-17T15:51:05.313Z,14.7973
2023-05-17T15:52:06.598Z,14.3590
2023-05-17T15:53:07.867Z,14.0879
2023-05-17T15:54:09.074Z,14.2736
2023-05-17T15:55:10.286Z,14.7139
2023-05-17T15:56:11.510Z,14.4768
2023-05-17T15:57:12.838Z,14.2442
2023-05-17T15:58:14.021Z,14.3617
2023-05-17T15:59:15.327Z,14.4713
2023-05-17T16:00:16.597Z,14.6789
2023-05-17T16:01:18.306Z,14.6230
2023-05-17T16:02:18.416Z,14.5618
2023-05-17T16:06:07.372Z,14.6536
2023-05-17T16:06:07.372Z,14.4736
2023-05-17T16:06:07.372Z,14.5270
2023-05-17T16:07:08.529Z,14.1772
2023-05-17T16:08:09.941Z,14.1803
2023-05-17T16:09:11.194Z,13.9518
2023-05-17T16:10:12.513Z,14.0033
2023-05-17T16:11:13.748Z,14.1592
2023-05-17T16:12:15.018Z,14.5130
2023-05-17T16:13:16.228Z,14.5526
2023-05-17T16:14:17.618Z,14.7657
2023-05-17T16:17:53.877Z,14.6471
2023-05-17T16:17:53.877Z,14.7296
2023-05-17T16:18:56.190Z,15.0076
2023-05-17T16:19:57.514Z,15.0416
2023-05-17T16:20:58.746Z,14.4673
2023-05-17T16:22:00.316Z,14.7264
2023-05-17T16:23:01.642Z,14.3918
2023-05-17T16:24:02.943Z,14.2326
2023-05-17T16:25:04.177Z,14.5661
2023-05-17T16:26:05.466Z,14.6529
2023-05-17T16:27:08.255Z,14.8821
2023-05-17T16:28:07.479Z,14.9119
2023-05-17T16:29:08.731Z,14.1588
2023-05-17T16:30:10.199Z,14.3552
2023-05-17T16:31:11.512Z,14.3834
2023-05-17T16:32:12.745Z,14.1373
2023-05-17T16:33:14.138Z,14.0797
2023-05-17T16:34:15.530Z,14.0519
2023-05-17T16:35:16.845Z,14.0370
2023-05-17T16:36:18.029Z,13.8705
2023-05-17T16:39:58.997Z,14.4575
2023-05-17T16:40:56.253Z,14.4860
2023-05-17T16:42:04.445Z,14.4827
2023-05-17T16:43:00.007Z,13.7205
2023-05-17T16:44:01.702Z,14.1987
2023-05-17T16:45:04.903Z,14.2846
2023-05-17T16:46:09.776Z,13.8944
2023-05-17T16:47:08.834Z,14.2689
2023-05-17T16:48:11.975Z,14.3727
2023-05-17T16:49:16.645Z,14.6155
2023-05-17T16:50:17.250Z,13.9361
2023-05-17T16:51:20.161Z,14.1195
2023-05-17T16:52:18.875Z,14.2562
2023-05-17T16:53:22.251Z,14.0381
2023-05-17T16:54:24.059Z,14.3070
2023-05-17T16:55:25.790Z,14.1856
2023-05-17T16:56:36.265Z,14.5237
2023-05-17T16:57:30.819Z,13.7920
2023-05-17T16:58:30.873Z,13.6101
2023-05-17T16:59:32.649Z,14.0264
2023-05-17T17:00:34.502Z,14.0536
2023-05-17T17:01:55.760Z,13.7380
2023-05-17T17:02:55.311Z,13.7125
2023-05-17T17:03:46.352Z,13.7715
2023-05-17T17:04:37.815Z,14.0850
2023-05-17T17:05:39.264Z,13.9616
2023-05-17T17:06:40.460Z,14.2390
2023-05-17T17:07:41.731Z,13.9543
2023-05-17T17:08:43.462Z,14.1103
2023-05-17T17:09:45.669Z,13.4266
2023-05-17T17:10:47.018Z,12.9199
2023-05-17T17:11:48.225Z,13.1774
2023-05-17T17:12:50.661Z,13.2448
2023-05-17T17:13:51.887Z,13.4450
2023-05-17T17:14:53.533Z,13.6145
2023-05-17T17:15:54.930Z,13.2452
2023-05-17T17:16:56.273Z,13.3106
2023-05-17T17:17:57.611Z,13.3703
2023-05-17T17:18:58.959Z,13.4517
2023-05-17T17:20:00.392Z,13.5210
2023-05-17T17:21:01.541Z,13.7597
2023-05-17T17:22:02.868Z,13.6538
2023-05-17T17:23:04.160Z,13.9442
2023-05-17T17:24:06.018Z,13.9402
2023-05-17T17:25:07.312Z,13.8796
2023-05-17T17:26:08.636Z,13.7938
2023-05-17T17:27:10.819Z,13.5441
2023-05-17T17:28:12.074Z,13.7104
2023-05-17T17:29:13.288Z,13.4677
2023-05-17T17:30:14.598Z,13.6351
2023-05-17T17:31:15.808Z,13.9126
2023-05-17T17:32:17.139Z,13.7802
2023-05-17T17:33:18.502Z,13.6744
2023-05-17T17:34:19.798Z,13.7594
2023-05-17T17:35:21.072Z,13.5860
2023-05-17T17:36:22.300Z,13.6447
2023-05-17T17:37:23.607Z,13.7239
2023-05-17T17:38:24.846Z,13.6777
2023-05-17T17:39:26.083Z,13.4228
2023-05-17T17:40:27.358Z,13.1856
2023-05-17T17:41:28.604Z,13.4029
2023-05-17T17:42:32.006Z,13.6692
2023-05-17T17:43:30.105Z,13.8226
2023-05-17T17:44:31.448Z,13.5693
2023-05-17T17:45:32.668Z,13.4213
2023-05-17T17:46:33.952Z,13.5066
2023-05-17T17:47:35.255Z,13.6253
2023-05-17T17:48:37.469Z,13.6155
2023-05-17T17:49:38.703Z,13.5351
2023-05-17T17:50:39.949Z,13.6646
2023-05-17T17:51:41.138Z,13.7812
2023-05-17T17:52:42.384Z,13.4502
2023-05-17T17:53:43.686Z,13.5689
2023-05-17T17:54:46.230Z,13.7729
2023-05-17T17:55:49.039Z,13.9625
2023-05-17T17:56:50.227Z,13.3839
2023-05-17T17:59:01.363Z,13.3778
2023-05-17T17:59:01.363Z,13.4611
2023-05-17T17:59:56.016Z,13.3500
2023-05-17T18:00:57.375Z,13.7878
2023-05-17T18:01:58.537Z,13.7269
2023-05-17T18:02:59.778Z,13.3259
2023-05-17T18:04:01.010Z,13.3287
2023-05-17T18:05:02.399Z,13.3019
2023-05-17T18:06:03.592Z,13.2626
2023-05-17T18:07:04.884Z,13.4388
2023-05-17T18:08:06.066Z,12.9314
2023-05-17T18:09:07.413Z,13.1681
2023-05-17T18:10:08.647Z,12.9611
2023-05-17T18:11:09.941Z,12.9113
2023-05-17T18:12:11.179Z,13.3143
2023-05-17T18:13:12.366Z,13.1457
2023-05-17T18:14:13.571Z,13.0090
2023-05-17T18:15:14.864Z,13.0390
2023-05-17T18:16:16.098Z,13.0062
2023-05-17T18:17:17.352Z,13.0212
2023-05-17T18:18:18.578Z,12.8405
2023-05-17T18:19:19.840Z,12.9430
2023-05-17T18:20:21.024Z,13.0966
2023-05-17T18:21:22.239Z,13.0213
2023-05-17T18:22:23.453Z,13.1820
2023-05-17T18:23:24.683Z,13.1747
2023-05-17T18:24:26.005Z,13.2010
2023-05-17T18:25:27.366Z,13.0699
2023-05-17T18:26:28.614Z,12.6658
2023-05-17T18:27:29.849Z,13.0794
2023-05-17T18:28:41.943Z,13.0758
2023-05-17T18:29:31.730Z,12.9622
2023-05-17T18:30:32.962Z,13.0651
2023-05-17T18:31:34.297Z,12.9288
2023-05-17T18:32:35.560Z,13.0903
2023-05-17T18:33:36.998Z,12.7530
2023-05-17T18:34:38.229Z,12.7954
2023-05-17T18:35:39.458Z,12.6545
2023-05-17T18:36:40.704Z,12.9547
2023-05-17T18:38:03.922Z,12.6554
2023-05-17T18:38:42.298Z,12.8258
2023-05-17T18:39:43.476Z,12.9520
2023-05-17T18:40:44.761Z,12.6181
2023-05-17T18:41:46.845Z,12.7763
2023-05-17T18:42:48.114Z,12.7994
2023-05-17T18:43:49.329Z,12.8074
2023-05-17T18:44:50.669Z,12.5227
2023-05-17T18:45:51.891Z,12.5070
2023-05-17T18:46:53.098Z,12.5362
2023-05-17T18:47:54.553Z,12.6347
2023-05-17T18:48:55.753Z,12.4420
2023-05-17T18:49:57.018Z,12.7064
2023-05-17T18:50:58.324Z,12.3892
2023-05-17T18:51:59.538Z,12.9648
2023-05-17T18:53:00.857Z,12.8481
2023-05-17T18:54:02.106Z,12.9630
2023-05-17T18:55:03.289Z,13.0804
2023-05-17T18:56:04.549Z,12.7515
2023-05-17T18:57:05.830Z,12.6312
2023-05-17T18:58:08.085Z,12.4612
2023-05-17T18:59:09.360Z,12.4756
2023-05-17T19:00:10.583Z,12.3815
2023-05-17T19:01:11.850Z,12.4296
2023-05-17T19:02:13.295Z,12.2602
2023-05-17T19:03:14.538Z,12.6936
2023-05-17T19:04:15.817Z,12.3696
2023-05-17T19:05:17.023Z,12.5710
2023-05-17T19:06:18.195Z,12.7436
2023-05-17T19:07:19.519Z,12.7785
2023-05-17T19:08:20.723Z,12.7426
2023-05-17T19:09:22.017Z,12.3745
2023-05-17T19:10:23.225Z,12.3464
2023-05-17T19:11:24.474Z,12.5305
2023-05-17T19:12:25.694Z,12.4248
2023-05-17T19:13:26.994Z,11.9971
2023-05-17T19:14:28.228Z,12.2223
2023-05-17T19:15:29.487Z,11.9729
2023-05-17T19:16:30.684Z,12.1341
2023-05-17T19:17:32.124Z,12.1369
2023-05-17T19:18:33.477Z,12.2406
2023-05-17T19:19:34.740Z,12.4963
2023-05-17T19:20:35.961Z,12.2596
2023-05-17T19:21:37.251Z,12.4787
2023-05-17T19:22:38.459Z,12.4591
2023-05-17T19:23:39.685Z,12.2720
2023-05-17T19:24:40.863Z,12.0275
2023-05-17T19:25:43.093Z,12.2542